Nearby METAR Reports

 

EDLW - Dortmund/Wickede, Germany
Distance from station: OSO 17km
Aktuell: 07/04/2020 02:20
geschlossene Wolkendecke
geschlossene Wolkendecke
 Wind aus WSW
Wind: WSW 9 km/h
Temperatur: 12°C
Taupunkt: 8°C
Luftfeuchte: 77%
Luftdruck: 1027 hPa
Clouds: geschlossene Wolkendecke
Visibility: 10 km
Cloud details: geschlossene Wolkendecke 2865 m
2020/04/07 00:20 EDLW 070020Z AUTO 24005KT 9999 // OVC094/// 12/08 Q1027
EDDL - Duesseldorf, Germany
Distance from station: SW 52km
Aktuell: 07/04/2020 02:50
klar
klar
 Wind aus varies
Wind: varies 2 km/h
Temperatur: 11°C
Taupunkt: 9°C
Luftfeuchte: 88%
Luftdruck: 1028 hPa
Zusammenfassung: klar
Visibility: greater than 10 km
2020/04/07 00:50 EDDL 070050Z VRB01KT CAVOK 11/09 Q1028 NOSIG
 
EDDG - Muenster/Osnabru, Germany
Distance from station: NNO 67km
Aktuell: 07/04/2020 02:50
teilweise bewölkt
teilweise bewölkt
 Wind aus W
Wind: W 6 km/h
Temperatur: 12°C
Taupunkt: 9°C
Luftfeuchte: 82%
Luftdruck: 1027 hPa
Clouds: teilweise bewölkt
Visibility: 10 km
Cloud details: teilweise bewölkt 671 m
2020/04/07 00:50 EDDG 070050Z 27003KT 9999 SCT022 12/09 Q1027 NOSIG
EDLN - Monchengladbach, Germany
Distance from station: WSW 72km
Aktuell: 07/04/2020 02:50
geschlossene Wolkendecke
geschlossene Wolkendecke
 Wind aus calm
Wind: Windstill
Temperatur: 12°C
Taupunkt: 9°C
Luftfeuchte: 82%
Luftdruck: 1028 hPa
Clouds: geschlossene Wolkendecke
Visibility: 10 km
Cloud details: leicht bewölkt 1676 m
stark bewölkt 1890 m
geschlossene Wolkendecke 2469 m
2020/04/07 00:50 EDLN 070050Z AUTO 00000KT 9999 // FEW055/// BKN062/// OVC081/// 12/09 Q1028
 
EDDK - Koeln/Bonn, Germany
Distance from station: SSW 79km
Aktuell: 07/04/2020 02:50
klar
klar
 Wind aus ONO
Wind: ONO 2 km/h
Temperatur: 13°C
Taupunkt: 6°C
Luftfeuchte: 63%
Luftdruck: 1028 hPa
Zusammenfassung: klar
Visibility: greater than 10 km
2020/04/07 00:50 EDDK 070050Z 06001KT CAVOK 13/06 Q1028 NOSIG
EDLP - Paderborn/Lippst, Germany
Distance from station: O 85km
Aktuell: 05/04/2020 18:20
NOT Current
klar
klar
 Wind aus OSO
Wind: OSO 20 km/h
Temperatur: 17°C
Taupunkt: -1°C
Luftfeuchte: 30%
Luftdruck: 1021 hPa
Zusammenfassung: klar
Visibility: greater than 10 km
2020/04/05 16:20 EDLP 051620Z 11011KT 080V150 CAVOK 17/M01 Q1021
 
EDLV - Niederrhein, Germany
Distance from station: W 86km
Aktuell: 03/04/2020 15:20
NOT Current
klar
klar
 Wind aus WNW
Wind: WNW 20 km/h
Temperatur: 10°C
Wind Chill: 7°C
Taupunkt: 2°C
Luftfeuchte: 58%
Luftdruck: 1016 hPa
Zusammenfassung: klar
Visibility: greater than 10 km
2020/04/03 13:20 EDLV 031320Z 30011KT 280V340 CAVOK 10/02 Q1016
ETNN - Noervenich (gaf), Germany
Distance from station: SSW 97km
Aktuell: 07/04/2020 02:20
stark bewölkt
stark bewölkt
 Wind aus varies
Wind: varies 2 km/h
Temperatur: 13°C
Taupunkt: 9°C
Luftfeuchte: 77%
Luftdruck: 1028 hPa
Clouds: stark bewölkt
Visibility: 10 km
Cloud details: stark bewölkt 2438 m
2020/04/07 00:20 ETNN 070020Z VRB01KT 9999 BKN080 13/09 Q1028 BLU